sensor_id;sensor_type;location;lat;lon;timestamp;pressure;altitude;pressure_sealevel;temperature;humidity
22582;BME280;47125;48.542;9.052;2023-01-08T00:06:12;95494.78;;;8.50;69.16
22582;BME280;47125;48.542;9.052;2023-01-08T00:16:16;95499.63;;;8.41;69.41
22582;BME280;47125;48.542;9.052;2023-01-08T00:26:20;95482.75;;;8.36;69.69
22582;BME280;47125;48.542;9.052;2023-01-08T00:36:23;95454.09;;;8.26;69.77
22582;BME280;47125;48.542;9.052;2023-01-08T00:46:27;95440.66;;;8.32;69.29
22582;BME280;47125;48.542;9.052;2023-01-08T00:56:29;95430.63;;;8.23;69.55
22582;BME280;47125;48.542;9.052;2023-01-08T01:06:33;95435.03;;;8.06;71.01
22582;BME280;47125;48.542;9.052;2023-01-08T01:16:35;95422.44;;;8.13;71.00
22582;BME280;47125;48.542;9.052;2023-01-08T01:26:41;95416.09;;;8.14;70.81
22582;BME280;47125;48.542;9.052;2023-01-08T01:36:44;95429.59;;;8.12;70.84
22582;BME280;47125;48.542;9.052;2023-01-08T01:46:48;95434.81;;;8.07;71.16
22582;BME280;47125;48.542;9.052;2023-01-08T01:56:51;95420.47;;;8.20;70.87
22582;BME280;47125;48.542;9.052;2023-01-08T02:06:56;95411.31;;;8.27;70.89
22582;BME280;47125;48.542;9.052;2023-01-08T02:17:02;95387.94;;;8.29;70.83
22582;BME280;47125;48.542;9.052;2023-01-08T02:27:09;95387.09;;;8.41;70.25
22582;BME280;47125;48.542;9.052;2023-01-08T02:37:12;95349.44;;;8.32;70.10
22582;BME280;47125;48.542;9.052;2023-01-08T02:47:20;95332.44;;;8.21;70.41
22582;BME280;47125;48.542;9.052;2023-01-08T02:57:25;95329.31;;;8.24;70.02
22582;BME280;47125;48.542;9.052;2023-01-08T03:07:30;95325.84;;;8.24;69.72
22582;BME280;47125;48.542;9.052;2023-01-08T03:17:33;95316.25;;;8.23;69.55
22582;BME280;47125;48.542;9.052;2023-01-08T03:27:40;95291.66;;;8.16;70.25
22582;BME280;47125;48.542;9.052;2023-01-08T03:37:44;95292.81;;;8.20;70.28
22582;BME280;47125;48.542;9.052;2023-01-08T03:47:49;95283.91;;;8.14;70.84
22582;BME280;47125;48.542;9.052;2023-01-08T03:57:52;95290.38;;;8.18;71.00
22582;BME280;47125;48.542;9.052;2023-01-08T04:07:56;95286.34;;;8.16;71.00
22582;BME280;47125;48.542;9.052;2023-01-08T04:17:58;95279.25;;;7.93;71.34
22582;BME280;47125;48.542;9.052;2023-01-08T04:28:02;95288.06;;;7.65;72.11
22582;BME280;47125;48.542;9.052;2023-01-08T04:38:05;95295.84;;;7.84;72.50
22582;BME280;47125;48.542;9.052;2023-01-08T04:48:09;95318.53;;;8.03;72.04
22582;BME280;47125;48.542;9.052;2023-01-08T04:58:11;95330.03;;;8.20;72.73
22582;BME280;47125;48.542;9.052;2023-01-08T05:08:15;95324.81;;;8.25;74.45
22582;BME280;47125;48.542;9.052;2023-01-08T05:18:17;95307.34;;;8.29;74.89
22582;BME280;47125;48.542;9.052;2023-01-08T05:28:21;95296.25;;;8.32;76.05
22582;BME280;47125;48.542;9.052;2023-01-08T05:38:24;95329.50;;;8.06;77.33
22582;BME280;47125;48.542;9.052;2023-01-08T05:48:28;95315.25;;;8.12;77.88
22582;BME280;47125;48.542;9.052;2023-01-08T05:58:31;95292.63;;;8.26;78.31
22582;BME280;47125;48.542;9.052;2023-01-08T06:08:35;95286.53;;;8.26;79.36
22582;BME280;47125;48.542;9.052;2023-01-08T06:18:37;95281.91;;;8.21;81.03
22582;BME280;47125;48.542;9.052;2023-01-08T06:28:41;95296.38;;;8.42;81.61
22582;BME280;47125;48.542;9.052;2023-01-08T06:38:44;95294.59;;;8.03;81.96
22582;BME280;47125;48.542;9.052;2023-01-08T06:48:48;95281.13;;;7.93;84.00
22582;BME280;47125;48.542;9.052;2023-01-08T06:58:50;95283.13;;;8.14;84.57
22582;BME280;47125;48.542;9.052;2023-01-08T07:08:54;95289.22;;;8.14;85.33
22582;BME280;47125;48.542;9.052;2023-01-08T07:18:57;95290.16;;;8.20;85.61
22582;BME280;47125;48.542;9.052;2023-01-08T07:29:01;95290.78;;;8.27;85.76
22582;BME280;47125;48.542;9.052;2023-01-08T07:39:04;95292.03;;;8.36;85.83
22582;BME280;47125;48.542;9.052;2023-01-08T07:49:08;95294.69;;;8.36;86.68
22582;BME280;47125;48.542;9.052;2023-01-08T07:59:10;95289.63;;;8.51;86.03
22582;BME280;47125;48.542;9.052;2023-01-08T08:09:14;95285.34;;;8.50;85.84
22582;BME280;47125;48.542;9.052;2023-01-08T08:19:16;95287.94;;;8.62;85.71
22582;BME280;47125;48.542;9.052;2023-01-08T08:29:20;95271.06;;;8.56;85.52
22582;BME280;47125;48.542;9.052;2023-01-08T08:39:23;95265.44;;;8.53;86.50
22582;BME280;47125;48.542;9.052;2023-01-08T08:49:27;95271.25;;;8.66;86.11
22582;BME280;47125;48.542;9.052;2023-01-08T08:59:30;95251.25;;;8.64;85.58
22582;BME280;47125;48.542;9.052;2023-01-08T09:09:34;95254.69;;;8.81;85.57
22582;BME280;47125;48.542;9.052;2023-01-08T09:19:36;95237.63;;;8.77;85.08
22582;BME280;47125;48.542;9.052;2023-01-08T09:29:41;95240.66;;;8.85;84.89
22582;BME280;47125;48.542;9.052;2023-01-08T09:39:43;95252.13;;;8.86;84.60
22582;BME280;47125;48.542;9.052;2023-01-08T09:49:56;95246.59;;;8.93;83.42
22582;BME280;47125;48.542;9.052;2023-01-08T10:00:00;95247.31;;;9.05;82.59
22582;BME280;47125;48.542;9.052;2023-01-08T10:10:05;95240.94;;;9.06;81.24
22582;BME280;47125;48.542;9.052;2023-01-08T10:20:09;95251.69;;;9.32;79.41
22582;BME280;47125;48.542;9.052;2023-01-08T10:30:17;95234.47;;;9.40;78.48
22582;BME280;47125;48.542;9.052;2023-01-08T10:40:21;95223.88;;;9.45;78.54
22582;BME280;47125;48.542;9.052;2023-01-08T10:50:27;95210.66;;;9.55;78.00
22582;BME280;47125;48.542;9.052;2023-01-08T11:00:31;95199.63;;;9.73;77.03
22582;BME280;47125;48.542;9.052;2023-01-08T11:10:35;95193.38;;;9.84;75.80
22582;BME280;47125;48.542;9.052;2023-01-08T11:20:38;95176.59;;;9.89;75.37
22582;BME280;47125;48.542;9.052;2023-01-08T11:30:44;95156.50;;;10.08;75.11
22582;BME280;47125;48.542;9.052;2023-01-08T11:40:50;95134.50;;;10.23;74.33
22582;BME280;47125;48.542;9.052;2023-01-08T11:51:01;95119.56;;;10.22;73.21
22582;BME280;47125;48.542;9.052;2023-01-08T12:01:13;95106.59;;;10.35;73.44
22582;BME280;47125;48.542;9.052;2023-01-08T12:11:22;95093.78;;;10.37;73.54
22582;BME280;47125;48.542;9.052;2023-01-08T12:21:29;95070.59;;;10.43;73.45
22582;BME280;47125;48.542;9.052;2023-01-08T12:31:46;95072.22;;;10.44;72.78
22582;BME280;47125;48.542;9.052;2023-01-08T12:42:04;95080.94;;;10.34;72.56
22582;BME280;47125;48.542;9.052;2023-01-08T12:52:11;95054.03;;;10.36;72.26
22582;BME280;47125;48.542;9.052;2023-01-08T13:02:20;95063.56;;;10.27;71.34
22582;BME280;47125;48.542;9.052;2023-01-08T13:12:30;95056.19;;;10.39;70.49
22582;BME280;47125;48.542;9.052;2023-01-08T13:22:34;95043.59;;;10.34;70.95
22582;BME280;47125;48.542;9.052;2023-01-08T13:32:42;95030.28;;;10.39;69.33
22582;BME280;47125;48.542;9.052;2023-01-08T13:42:45;95017.78;;;10.50;69.39
22582;BME280;47125;48.542;9.052;2023-01-08T13:52:54;94993.88;;;10.85;68.75
22582;BME280;47125;48.542;9.052;2023-01-08T14:02:58;94977.38;;;10.98;67.30
22582;BME280;47125;48.542;9.052;2023-01-08T14:13:03;94968.50;;;10.88;67.95
22582;BME280;47125;48.542;9.052;2023-01-08T14:23:07;94969.84;;;10.85;68.50
22582;BME280;47125;48.542;9.052;2023-01-08T14:33:13;94967.13;;;10.70;69.15
22582;BME280;47125;48.542;9.052;2023-01-08T14:43:16;94970.31;;;10.67;69.79
22582;BME280;47125;48.542;9.052;2023-01-08T14:53:22;94959.88;;;10.61;69.83
22582;BME280;47125;48.542;9.052;2023-01-08T15:03:27;94946.56;;;10.66;70.18
22582;BME280;47125;48.542;9.052;2023-01-08T15:13:33;94925.47;;;10.59;71.91
22582;BME280;47125;48.542;9.052;2023-01-08T15:23:38;94901.44;;;10.59;71.62
22582;BME280;47125;48.542;9.052;2023-01-08T15:33:43;94890.44;;;10.45;71.92
22582;BME280;47125;48.542;9.052;2023-01-08T15:43:45;94870.44;;;10.43;72.06
22582;BME280;47125;48.542;9.052;2023-01-08T15:53:52;94866.69;;;10.39;72.21
22582;BME280;47125;48.542;9.052;2023-01-08T16:03:55;94851.50;;;10.44;71.46
22582;BME280;47125;48.542;9.052;2023-01-08T16:13:59;94846.97;;;10.50;71.40
22582;BME280;47125;48.542;9.052;2023-01-08T16:24:01;94832.53;;;10.46;71.28
22582;BME280;47125;48.542;9.052;2023-01-08T16:34:05;94811.47;;;10.44;70.80
22582;BME280;47125;48.542;9.052;2023-01-08T16:44:12;94806.38;;;10.43;71.81
22582;BME280;47125;48.542;9.052;2023-01-08T16:54:18;94778.88;;;10.37;71.66
22582;BME280;47125;48.542;9.052;2023-01-08T17:04:23;94766.34;;;10.23;71.97
22582;BME280;47125;48.542;9.052;2023-01-08T17:14:27;94780.22;;;10.30;71.45
22582;BME280;47125;48.542;9.052;2023-01-08T17:24:30;94764.75;;;10.27;71.50
22582;BME280;47125;48.542;9.052;2023-01-08T17:34:34;94751.94;;;10.29;71.00
22582;BME280;47125;48.542;9.052;2023-01-08T17:44:36;94731.41;;;10.24;71.33
22582;BME280;47125;48.542;9.052;2023-01-08T17:54:40;94735.31;;;10.02;72.09
22582;BME280;47125;48.542;9.052;2023-01-08T18:04:43;94722.25;;;10.10;72.32
22582;BME280;47125;48.542;9.052;2023-01-08T18:14:47;94697.22;;;10.06;72.43
22582;BME280;47125;48.542;9.052;2023-01-08T18:24:49;94686.78;;;10.05;72.57
22582;BME280;47125;48.542;9.052;2023-01-08T18:34:53;94679.56;;;9.95;72.68
22582;BME280;47125;48.542;9.052;2023-01-08T18:44:56;94674.25;;;9.95;73.16
22582;BME280;47125;48.542;9.052;2023-01-08T18:55:00;94669.72;;;9.95;72.10
22582;BME280;47125;48.542;9.052;2023-01-08T19:05:03;94654.22;;;9.82;72.28
22582;BME280;47125;48.542;9.052;2023-01-08T19:15:07;94630.50;;;9.76;73.42
22582;BME280;47125;48.542;9.052;2023-01-08T19:25:10;94618.25;;;9.85;74.67
22582;BME280;47125;48.542;9.052;2023-01-08T19:35:16;94608.66;;;9.79;76.14
22582;BME280;47125;48.542;9.052;2023-01-08T19:45:18;94592.91;;;9.82;77.99
22582;BME280;47125;48.542;9.052;2023-01-08T19:55:22;94598.25;;;9.82;78.51
22582;BME280;47125;48.542;9.052;2023-01-08T20:05:25;94580.13;;;9.84;78.90
22582;BME280;47125;48.542;9.052;2023-01-08T20:15:29;94588.38;;;9.78;79.98
22582;BME280;47125;48.542;9.052;2023-01-08T20:25:32;94568.94;;;9.72;80.35
22582;BME280;47125;48.542;9.052;2023-01-08T20:35:36;94556.66;;;9.66;82.19
22582;BME280;47125;48.542;9.052;2023-01-08T20:45:39;94543.59;;;9.65;82.35
22582;BME280;47125;48.542;9.052;2023-01-08T20:55:43;94520.41;;;9.65;83.00
22582;BME280;47125;48.542;9.052;2023-01-08T21:05:46;94498.53;;;9.83;81.88
22582;BME280;47125;48.542;9.052;2023-01-08T21:15:50;94494.00;;;9.74;82.65
22582;BME280;47125;48.542;9.052;2023-01-08T21:25:53;94470.03;;;9.59;83.59
22582;BME280;47125;48.542;9.052;2023-01-08T21:36:00;94476.44;;;9.53;84.27
22582;BME280;47125;48.542;9.052;2023-01-08T21:46:03;94465.81;;;9.43;85.42
22582;BME280;47125;48.542;9.052;2023-01-08T21:56:07;94455.69;;;9.39;85.93
22582;BME280;47125;48.542;9.052;2023-01-08T22:06:10;94440.22;;;9.41;85.56
22582;BME280;47125;48.542;9.052;2023-01-08T22:16:14;94440.50;;;9.30;86.48
22582;BME280;47125;48.542;9.052;2023-01-08T22:26:17;94425.06;;;9.12;88.35
22582;BME280;47125;48.542;9.052;2023-01-08T22:36:22;94420.78;;;9.11;88.31
22582;BME280;47125;48.542;9.052;2023-01-08T22:46:24;94421.06;;;9.04;88.35
22582;BME280;47125;48.542;9.052;2023-01-08T22:56:29;94415.97;;;8.77;88.19
22582;BME280;47125;48.542;9.052;2023-01-08T23:06:31;94417.06;;;8.92;87.29
22582;BME280;47125;48.542;9.052;2023-01-08T23:16:36;94398.66;;;8.70;87.35
22582;BME280;47125;48.542;9.052;2023-01-08T23:26:39;94387.50;;;8.68;87.48
22582;BME280;47125;48.542;9.052;2023-01-08T23:36:44;94378.19;;;8.75;87.06
22582;BME280;47125;48.542;9.052;2023-01-08T23:46:46;94364.84;;;8.65;86.73
22582;BME280;47125;48.542;9.052;2023-01-08T23:56:51;94366.47;;;8.76;85.64
